createdAt,value
2017-10-21T00:01:26.872Z,60.27
2017-10-21T00:03:54.387Z,61.47
2017-10-21T00:06:22.739Z,60.37
2017-10-21T00:08:50.309Z,61.43
2017-10-21T00:11:17.814Z,60.67
2017-10-21T00:13:45.355Z,58.93
2017-10-21T00:16:12.951Z,66.13
2017-10-21T00:18:40.475Z,63.57
2017-10-21T00:21:08.785Z,62.10
2017-10-21T00:23:36.407Z,59.57
2017-10-21T00:26:04.683Z,61.97
2017-10-21T00:28:33.002Z,58.83
2017-10-21T00:31:00.556Z,61.73
2017-10-21T00:33:28.118Z,60.33
2017-10-21T00:35:55.686Z,60.40
2017-10-21T00:38:23.211Z,58.70
2017-10-21T00:40:50.727Z,60.57
2017-10-21T00:43:18.371Z,57.20
2017-10-21T00:45:45.961Z,62.93
2017-10-21T00:48:14.237Z,61.67
2017-10-21T00:50:41.815Z,62.80
2017-10-21T00:53:09.324Z,59.87
2017-10-21T00:55:36.890Z,59.03
2017-10-21T00:58:04.455Z,62.57
2017-10-21T01:00:31.995Z,59.43
2017-10-21T01:02:59.530Z,53.87
2017-10-21T01:05:27.123Z,52.27
2017-10-21T01:07:54.667Z,54.80
2017-10-21T01:10:22.368Z,53.93
2017-10-21T01:12:49.915Z,54.90
2017-10-21T01:15:17.455Z,50.87
2017-10-21T01:17:45.040Z,52.13
2017-10-21T01:20:12.592Z,49.60
2017-10-21T01:22:40.154Z,53.10
2017-10-21T01:25:07.870Z,54.60
2017-10-21T01:27:35.385Z,51.00
2017-10-21T01:30:03.064Z,51.70
2017-10-21T01:32:30.703Z,50.00
2017-10-21T01:34:58.300Z,49.73
2017-10-21T01:37:26.590Z,50.70
2017-10-21T01:39:54.144Z,51.23
2017-10-21T01:42:21.711Z,54.30
2017-10-21T01:44:49.269Z,53.83
2017-10-21T01:47:16.799Z,49.57
2017-10-21T01:49:45.154Z,51.30
2017-10-21T01:52:12.687Z,53.67
2017-10-21T01:54:40.252Z,52.00
2017-10-21T01:57:07.840Z,51.87
2017-10-21T01:59:35.351Z,52.20
2017-10-21T02:02:02.917Z,52.00
2017-10-21T02:04:30.486Z,50.93
2017-10-21T02:06:57.998Z,52.40
2017-10-21T02:09:25.535Z,49.50
2017-10-21T02:11:53.120Z,49.33
2017-10-21T02:14:20.657Z,47.53
2017-10-21T02:16:48.596Z,50.20
2017-10-21T02:19:16.159Z,49.50
2017-10-21T02:21:43.800Z,46.90
2017-10-21T02:24:11.355Z,48.40
2017-10-21T02:26:38.925Z,47.00
2017-10-21T02:29:06.467Z,48.17
2017-10-21T02:31:34.031Z,47.10
2017-10-21T02:34:01.559Z,47.20
2017-10-21T02:36:29.121Z,46.27
2017-10-21T02:38:57.422Z,44.93
2017-10-21T02:41:24.981Z,45.37
2017-10-21T02:43:52.521Z,44.40
2017-10-21T02:46:20.839Z,46.27
2017-10-21T02:51:22.266Z,41.43
2017-10-21T02:53:49.824Z,43.90
2017-10-21T02:56:17.393Z,44.03
2017-10-21T02:58:45.036Z,44.70
2017-10-21T03:01:13.363Z,43.20
2017-10-21T03:03:40.933Z,41.30
2017-10-21T03:06:08.512Z,41.73
2017-10-21T03:08:36.032Z,40.30
2017-10-21T03:11:03.660Z,40.00
2017-10-21T03:13:31.226Z,42.30
2017-10-21T03:15:59.526Z,41.93
2017-10-21T03:18:27.045Z,45.00
2017-10-21T03:20:54.584Z,44.50
2017-10-21T03:23:22.136Z,44.23
2017-10-21T03:25:49.786Z,44.63
2017-10-21T03:28:17.303Z,44.90
2017-10-21T03:30:45.668Z,45.20
2017-10-21T03:33:14.863Z,45.50
2017-10-21T03:35:42.420Z,45.20
2017-10-21T03:38:09.931Z,46.87
2017-10-21T03:40:37.487Z,46.23
2017-10-21T03:43:05.043Z,44.73
2017-10-21T03:45:32.570Z,48.13
2017-10-21T03:48:00.889Z,47.37
2017-10-21T03:50:28.485Z,46.90
2017-10-21T03:52:56.065Z,44.70
2017-10-21T03:55:23.647Z,48.13
2017-10-21T03:57:51.259Z,47.67
2017-10-21T04:00:18.780Z,47.93
2017-10-21T04:02:46.326Z,46.53
2017-10-21T04:05:13.843Z,46.27
2017-10-21T04:07:41.392Z,45.87
2017-10-21T04:10:08.906Z,48.40
2017-10-21T04:12:36.450Z,48.37
2017-10-21T04:15:04.939Z,47.30
2017-10-21T04:17:33.258Z,48.20
2017-10-21T04:20:01.575Z,46.30
2017-10-21T04:22:29.883Z,47.63
2017-10-21T04:24:57.420Z,50.90
2017-10-21T04:27:25.718Z,51.00
2017-10-21T04:29:53.240Z,48.20
2017-10-21T04:32:20.799Z,47.70
2017-10-21T04:34:48.333Z,49.50
2017-10-21T04:37:15.838Z,50.17
2017-10-21T04:39:43.370Z,47.80
2017-10-21T04:42:10.898Z,49.77
2017-10-21T04:44:38.444Z,52.30
2017-10-21T04:47:05.944Z,47.57
2017-10-21T04:49:33.470Z,48.83
2017-10-21T04:52:01.043Z,51.50
2017-10-21T04:54:28.614Z,50.50
2017-10-21T04:56:56.123Z,51.30
2017-10-21T04:59:23.656Z,49.67
2017-10-21T05:01:51.186Z,49.60
2017-10-21T05:04:18.699Z,50.00
2017-10-21T05:06:46.244Z,53.33
2017-10-21T05:09:14.517Z,49.53
2017-10-21T05:11:42.819Z,54.43
2017-10-21T05:14:10.369Z,51.47
2017-10-21T05:16:37.918Z,52.97
2017-10-21T05:19:06.214Z,53.40
2017-10-21T05:21:33.801Z,51.57
2017-10-21T05:24:01.359Z,51.90
2017-10-21T05:26:28.947Z,52.77
2017-10-21T05:28:56.553Z,51.07
2017-10-21T05:31:24.084Z,52.50
2017-10-21T05:33:51.634Z,56.10
2017-10-21T05:36:19.199Z,51.97
2017-10-21T05:38:46.769Z,52.90
2017-10-21T05:41:15.144Z,53.37
2017-10-21T05:43:43.466Z,54.03
2017-10-21T05:46:10.986Z,52.67
2017-10-21T05:48:38.521Z,54.20
2017-10-21T05:51:06.072Z,51.90
2017-10-21T05:53:33.614Z,53.83
2017-10-21T05:56:01.187Z,51.37
2017-10-21T05:58:28.704Z,49.57
2017-10-21T06:00:56.254Z,51.63
2017-10-21T06:03:24.552Z,50.10
2017-10-21T06:05:52.065Z,51.70
2017-10-21T06:08:19.693Z,48.87
2017-10-21T06:10:47.214Z,50.47
2017-10-21T06:13:14.732Z,53.70
2017-10-21T06:15:42.306Z,52.87
2017-10-21T06:18:09.843Z,51.40
2017-10-21T06:20:37.414Z,53.37
2017-10-21T06:23:05.020Z,50.53
2017-10-21T06:25:32.562Z,52.37
2017-10-21T06:28:00.134Z,52.10
2017-10-21T06:30:27.722Z,52.47
2017-10-21T06:32:55.239Z,52.00
2017-10-21T06:35:23.164Z,51.43
2017-10-21T06:37:50.704Z,53.57
2017-10-21T06:40:18.244Z,56.77
2017-10-21T06:42:45.784Z,53.90
2017-10-21T06:45:14.162Z,55.63
2017-10-21T06:47:42.434Z,54.27
2017-10-21T06:50:11.082Z,54.27
2017-10-21T06:52:38.652Z,54.57
2017-10-21T06:55:06.223Z,56.07
2017-10-21T06:57:33.832Z,51.87
2017-10-21T07:00:01.354Z,52.10
2017-10-21T07:02:29.652Z,54.77
2017-10-21T07:04:57.199Z,55.30
2017-10-21T07:07:25.826Z,57.80
2017-10-21T07:09:53.353Z,54.80
2017-10-21T07:12:20.889Z,54.43
2017-10-21T07:14:48.488Z,57.13
2017-10-21T07:17:16.079Z,52.33
2017-10-21T07:19:43.696Z,52.77
2017-10-21T07:22:11.269Z,52.53
2017-10-21T07:24:38.799Z,54.20
2017-10-21T07:27:06.399Z,54.90
2017-10-21T07:29:34.007Z,55.50
2017-10-21T07:32:01.579Z,54.40
2017-10-21T07:34:29.604Z,50.37
2017-10-21T07:36:57.151Z,51.90
2017-10-21T07:39:24.678Z,53.70
2017-10-21T07:41:53.042Z,52.83
2017-10-21T07:44:20.583Z,52.87
2017-10-21T07:46:48.138Z,55.13
2017-10-21T07:49:16.446Z,52.63
2017-10-21T07:51:44.761Z,52.80
2017-10-21T07:54:12.394Z,50.57
2017-10-21T07:56:39.920Z,50.90
2017-10-21T07:59:07.477Z,53.53
2017-10-21T08:01:35.000Z,52.60
2017-10-21T08:04:02.543Z,50.07
2017-10-21T08:06:30.099Z,51.77
2017-10-21T08:08:57.685Z,54.17
2017-10-21T08:11:25.218Z,52.20
2017-10-21T08:13:52.794Z,52.90
2017-10-21T08:16:20.342Z,53.20
2017-10-21T08:18:47.899Z,52.40
2017-10-21T08:21:15.425Z,54.37
2017-10-21T08:23:43.048Z,55.37
2017-10-21T08:26:10.622Z,50.90
2017-10-21T08:28:38.172Z,51.07
2017-10-21T08:31:05.717Z,51.20
2017-10-21T08:33:34.299Z,54.73
2017-10-21T08:36:01.862Z,52.70
2017-10-21T08:38:30.383Z,48.73
2017-10-21T08:40:58.801Z,50.47
2017-10-21T08:43:26.407Z,51.37
2017-10-21T08:45:53.995Z,51.87
2017-10-21T08:48:21.574Z,48.03
2017-10-21T08:50:49.867Z,48.47
2017-10-21T08:53:17.501Z,47.50
2017-10-21T08:55:45.794Z,50.50
2017-10-21T08:58:13.568Z,49.50
2017-10-21T09:00:41.306Z,48.43
2017-10-21T09:03:08.821Z,48.70
2017-10-21T09:05:37.273Z,48.43
2017-10-21T09:08:04.934Z,45.23
2017-10-21T09:10:32.478Z,48.00
2017-10-21T09:13:00.047Z,44.63
2017-10-21T09:15:27.570Z,46.40
2017-10-21T09:17:55.133Z,46.07
2017-10-21T09:20:22.707Z,45.87
2017-10-21T09:22:50.990Z,39.80
2017-10-21T09:25:18.590Z,40.57
2017-10-21T09:27:46.630Z,43.20
2017-10-21T09:30:14.152Z,42.20
2017-10-21T09:32:41.724Z,42.80
2017-10-21T09:35:10.185Z,38.63
2017-10-21T09:37:37.795Z,40.17
2017-10-21T09:40:05.669Z,36.13
2017-10-21T09:42:34.185Z,35.87
2017-10-21T09:45:01.743Z,39.37
2017-10-21T09:47:29.303Z,37.80
2017-10-21T09:49:56.891Z,37.23
2017-10-21T09:52:24.426Z,36.57
2017-10-21T09:54:51.982Z,35.10
2017-10-21T09:57:19.694Z,35.47
2017-10-21T09:59:48.225Z,35.60
2017-10-21T10:02:15.772Z,34.60
2017-10-21T10:04:43.334Z,33.23
2017-10-21T10:07:10.932Z,32.00
2017-10-21T10:09:38.698Z,35.40
2017-10-21T10:12:07.021Z,32.10
2017-10-21T10:14:34.880Z,32.20
2017-10-21T10:17:02.427Z,37.03
2017-10-21T10:19:29.971Z,36.30
2017-10-21T10:21:57.518Z,36.13
2017-10-21T10:24:25.118Z,34.80
2017-10-21T10:26:52.674Z,35.00
2017-10-21T10:29:20.227Z,32.67
2017-10-21T10:31:47.780Z,33.00
2017-10-21T10:34:15.338Z,35.27
2017-10-21T10:36:43.672Z,31.10
2017-10-21T10:39:11.216Z,30.73
2017-10-21T10:41:38.726Z,33.20
2017-10-21T10:44:06.272Z,31.27
2017-10-21T10:46:34.586Z,33.67
2017-10-21T10:49:02.146Z,32.57
2017-10-21T10:51:29.793Z,33.20
2017-10-21T10:53:57.331Z,31.30
2017-10-21T10:56:24.851Z,30.07
2017-10-21T10:58:52.508Z,30.77
2017-10-21T11:01:20.081Z,32.70
2017-10-21T11:03:47.633Z,33.43
2017-10-21T11:06:15.162Z,36.57
2017-10-21T11:08:42.771Z,38.00
2017-10-21T11:11:10.379Z,39.10
2017-10-21T11:13:38.000Z,37.70
2017-10-21T11:16:05.595Z,37.57
2017-10-21T11:18:33.168Z,36.23
2017-10-21T11:21:00.759Z,36.83
2017-10-21T11:23:28.345Z,33.50
2017-10-21T11:25:56.186Z,35.93
2017-10-21T11:28:23.762Z,34.60
2017-10-21T11:30:51.344Z,32.83
2017-10-21T11:33:19.645Z,33.47
2017-10-21T11:35:47.259Z,33.17
2017-10-21T11:38:14.829Z,31.10
2017-10-21T11:40:42.547Z,29.40
2017-10-21T11:43:10.137Z,30.67
2017-10-21T11:45:37.711Z,31.33
2017-10-21T11:48:05.303Z,31.50
2017-10-21T11:50:33.463Z,31.33
2017-10-21T11:53:01.820Z,31.00
2017-10-21T11:55:29.368Z,29.53
2017-10-21T11:57:56.974Z,28.87
2017-10-21T12:00:24.529Z,28.70
2017-10-21T12:02:53.110Z,29.13
2017-10-21T12:05:21.562Z,28.77
2017-10-21T12:07:49.123Z,28.80
2017-10-21T12:10:16.729Z,27.50
2017-10-21T12:12:44.290Z,27.50
2017-10-21T12:15:11.853Z,28.30
2017-10-21T12:17:39.405Z,26.70
2017-10-21T12:20:07.080Z,26.40
2017-10-21T12:22:34.598Z,27.60
2017-10-21T12:25:02.182Z,28.67
2017-10-21T12:27:29.805Z,26.73
2017-10-21T12:29:57.319Z,26.47
2017-10-21T12:32:24.863Z,28.43
2017-10-21T12:34:52.463Z,27.43
2017-10-21T12:37:19.987Z,26.80
2017-10-21T12:39:47.519Z,28.17
2017-10-21T12:42:15.079Z,26.47
2017-10-21T12:44:42.592Z,28.67
2017-10-21T12:47:10.106Z,27.47
2017-10-21T12:49:38.442Z,28.57
2017-10-21T12:52:05.954Z,28.07
2017-10-21T12:54:33.507Z,27.80
2017-10-21T12:57:02.003Z,27.17
2017-10-21T12:59:29.543Z,24.27
2017-10-21T13:01:57.113Z,25.10
2017-10-21T13:04:24.660Z,26.33
2017-10-21T13:06:52.246Z,23.83
2017-10-21T13:09:19.764Z,24.87
2017-10-21T13:11:47.352Z,26.17
2017-10-21T13:14:14.910Z,27.17
2017-10-21T13:16:43.234Z,26.03
2017-10-21T13:19:10.782Z,26.13
2017-10-21T13:21:38.350Z,27.13
2017-10-21T13:24:05.953Z,27.20
2017-10-21T13:26:34.291Z,26.37
2017-10-21T13:29:01.875Z,26.17
2017-10-21T13:31:29.453Z,27.87
2017-10-21T13:33:56.993Z,25.87
2017-10-21T13:36:24.593Z,26.80
2017-10-21T13:38:52.096Z,23.37
2017-10-21T13:41:19.769Z,23.17
2017-10-21T13:43:47.318Z,23.63
2017-10-21T13:46:14.877Z,22.77
2017-10-21T13:48:42.445Z,23.20
2017-10-21T13:51:10.026Z,23.00
2017-10-21T13:53:37.989Z,22.83
2017-10-21T13:56:05.538Z,23.90
2017-10-21T13:58:33.121Z,25.53
2017-10-21T14:01:00.727Z,24.13
2017-10-21T14:03:28.257Z,22.60
2017-10-21T14:05:55.818Z,23.67
2017-10-21T14:08:23.486Z,24.40
2017-10-21T14:10:52.058Z,23.50
2017-10-21T14:13:19.782Z,23.40
2017-10-21T14:15:47.352Z,23.67
2017-10-21T14:18:16.687Z,23.80
2017-10-21T14:20:44.271Z,23.17
2017-10-21T14:23:12.167Z,25.03
2017-10-21T14:25:39.709Z,22.13
2017-10-21T14:28:07.271Z,22.80
2017-10-21T14:30:34.815Z,23.17
2017-10-21T14:33:02.328Z,24.10
2017-10-21T14:35:29.891Z,24.27
2017-10-21T14:37:57.446Z,22.80
2017-10-21T14:40:25.017Z,21.70
2017-10-21T14:42:52.682Z,19.27
2017-10-21T14:45:20.993Z,19.53
2017-10-21T14:47:48.597Z,20.70
2017-10-21T14:50:16.160Z,21.80
2017-10-21T14:52:43.796Z,20.80
2017-10-21T14:55:11.462Z,21.20
2017-10-21T14:57:39.010Z,21.20
2017-10-21T15:00:06.597Z,20.73
2017-10-21T15:02:34.216Z,19.87
2017-10-21T15:05:01.786Z,19.97
2017-10-21T15:07:29.312Z,20.73
2017-10-21T15:09:56.907Z,18.57
2017-10-21T15:12:24.404Z,17.50
2017-10-21T15:14:51.910Z,18.37
2017-10-21T15:17:19.540Z,17.53
2017-10-21T15:19:47.122Z,17.07
2017-10-21T15:22:14.701Z,17.00
2017-10-21T15:24:42.352Z,16.43
2017-10-21T15:27:09.897Z,17.37
2017-10-21T15:29:37.501Z,16.03
2017-10-21T15:32:05.109Z,16.00
2017-10-21T15:34:32.698Z,14.67
2017-10-21T15:37:00.265Z,13.30
2017-10-21T15:39:27.795Z,17.07
2017-10-21T15:41:55.347Z,14.87
2017-10-21T15:44:23.623Z,15.00
2017-10-21T15:46:51.156Z,13.97
2017-10-21T15:49:19.512Z,17.00
2017-10-21T15:51:47.105Z,15.50
2017-10-21T15:54:14.642Z,15.03
2017-10-21T15:56:42.161Z,15.60
2017-10-21T15:59:09.779Z,14.93
2017-10-21T16:01:38.239Z,15.30
2017-10-21T16:04:05.785Z,15.97
2017-10-21T16:06:33.352Z,15.43
2017-10-21T16:09:01.005Z,15.90
2017-10-21T16:11:28.717Z,16.30
2017-10-21T16:13:57.043Z,17.23
2017-10-21T16:16:25.477Z,16.10
2017-10-21T16:18:53.085Z,15.90
2017-10-21T16:21:20.695Z,17.50
2017-10-21T16:23:48.308Z,14.23
2017-10-21T16:26:16.962Z,15.47
2017-10-21T16:28:45.467Z,16.37
2017-10-21T16:31:13.277Z,15.70
2017-10-21T16:33:40.835Z,16.00
2017-10-21T16:36:08.402Z,16.37
2017-10-21T16:38:36.829Z,20.03
2017-10-21T16:41:05.972Z,18.37
2017-10-21T16:43:34.317Z,16.97
2017-10-21T16:46:02.000Z,16.63
2017-10-21T16:48:29.558Z,17.87
2017-10-21T16:50:57.151Z,18.10
2017-10-21T16:53:24.765Z,16.80
2017-10-21T16:55:52.412Z,18.90
2017-10-21T16:58:19.974Z,17.50
2017-10-21T17:00:47.576Z,18.80
2017-10-21T17:03:15.098Z,18.93
2017-10-21T17:05:42.624Z,19.67
2017-10-21T17:08:10.216Z,19.17
2017-10-21T17:10:37.765Z,19.33
2017-10-21T17:13:05.348Z,19.33
2017-10-21T17:15:32.928Z,21.80
2017-10-21T17:18:00.499Z,21.10
2017-10-21T17:20:28.109Z,20.23
2017-10-21T17:22:55.676Z,20.07
2017-10-21T17:25:23.268Z,18.43
2017-10-21T17:27:50.939Z,18.43
2017-10-21T17:30:18.571Z,18.13
2017-10-21T17:32:46.166Z,19.10
2017-10-21T17:35:14.814Z,20.60
2017-10-21T17:37:42.380Z,20.10
2017-10-21T17:40:09.985Z,22.50
2017-10-21T17:42:38.387Z,20.03
2017-10-21T17:45:05.996Z,20.90
2017-10-21T17:47:33.561Z,19.90
2017-10-21T17:50:01.184Z,25.50
2017-10-21T17:52:28.719Z,23.90
2017-10-21T17:54:56.288Z,23.33
2017-10-21T17:57:23.894Z,22.93
2017-10-21T17:59:51.483Z,24.67
2017-10-21T18:02:19.073Z,24.40
2017-10-21T18:04:46.667Z,22.37
2017-10-21T18:07:14.222Z,25.03
2017-10-21T18:09:41.832Z,26.03
2017-10-21T18:12:10.165Z,25.97
2017-10-21T18:14:37.708Z,27.73
2017-10-21T18:17:05.288Z,28.77
2017-10-21T18:19:32.832Z,25.30
2017-10-21T18:22:00.541Z,23.87
2017-10-21T18:24:29.528Z,22.30
2017-10-21T18:26:57.103Z,22.53
2017-10-21T18:29:25.463Z,21.60
2017-10-21T18:31:53.594Z,22.57
2017-10-21T18:34:21.164Z,21.67
2017-10-21T18:36:48.722Z,21.10
2017-10-21T18:39:16.303Z,20.47
2017-10-21T18:41:44.092Z,20.80
2017-10-21T18:44:11.656Z,21.57
2017-10-21T18:46:40.352Z,19.87
2017-10-21T18:49:07.882Z,20.10
2017-10-21T18:51:35.456Z,20.50
2017-10-21T18:54:03.842Z,19.70
2017-10-21T18:56:31.453Z,21.50
2017-10-21T18:58:59.029Z,20.80
2017-10-21T19:01:26.572Z,19.70
2017-10-21T19:03:54.120Z,19.37
2017-10-21T19:06:21.695Z,19.60
2017-10-21T19:08:50.056Z,18.40
2017-10-21T19:11:17.675Z,20.27
2017-10-21T19:13:45.471Z,19.10
2017-10-21T19:16:13.073Z,18.70
2017-10-21T19:18:40.656Z,19.57
2017-10-21T19:21:10.108Z,21.03
2017-10-21T19:23:37.678Z,20.27
2017-10-21T19:26:05.248Z,17.97
2017-10-21T19:28:32.923Z,18.70
2017-10-21T19:31:00.457Z,17.93
2017-10-21T19:33:28.172Z,18.33
2017-10-21T19:35:56.528Z,18.83
2017-10-21T19:38:24.252Z,16.33
2017-10-21T19:40:51.818Z,17.13
2017-10-21T19:43:19.378Z,16.73
2017-10-21T19:45:46.947Z,16.33
2017-10-21T19:48:14.579Z,14.60
2017-10-21T19:50:42.233Z,16.00
2017-10-21T19:53:09.768Z,15.50
2017-10-21T19:55:37.359Z,15.60
2017-10-21T19:58:04.919Z,15.47
2017-10-21T20:00:32.536Z,15.63
2017-10-21T20:03:00.103Z,16.00
2017-10-21T20:05:27.647Z,15.27
2017-10-21T20:07:55.227Z,16.77
2017-10-21T20:10:22.844Z,16.30
2017-10-21T20:12:50.482Z,14.20
2017-10-21T20:15:18.083Z,14.00
2017-10-21T20:17:45.657Z,14.93
2017-10-21T20:20:13.975Z,14.33
2017-10-21T20:22:41.512Z,14.23
2017-10-21T20:25:10.861Z,15.20
2017-10-21T20:27:39.127Z,17.30
2017-10-21T20:30:07.187Z,17.83
2017-10-21T20:32:34.809Z,18.90
2017-10-21T20:35:02.516Z,16.47
2017-10-21T20:37:30.521Z,16.17
2017-10-21T20:39:58.135Z,17.80
2017-10-21T20:42:25.797Z,17.33
2017-10-21T20:44:53.439Z,17.60
2017-10-21T20:47:21.188Z,17.20
2017-10-21T20:49:48.858Z,17.90
2017-10-21T20:52:16.502Z,17.73
2017-10-21T20:54:44.064Z,19.10
2017-10-21T20:57:11.743Z,20.07
2017-10-21T20:59:39.377Z,20.40
2017-10-21T21:02:06.957Z,19.20
2017-10-21T21:04:34.581Z,18.90
2017-10-21T21:07:02.153Z,18.77
2017-10-21T21:09:29.800Z,18.77
2017-10-21T21:11:57.572Z,18.70
2017-10-21T21:14:25.251Z,20.30
2017-10-21T21:19:39.715Z,20.60
2017-10-21T21:22:07.308Z,19.60
2017-10-21T21:24:34.892Z,23.17
2017-10-21T21:27:02.551Z,23.00
2017-10-21T21:29:31.099Z,25.50
2017-10-21T21:31:59.475Z,25.53
2017-10-21T21:34:27.918Z,24.13
2017-10-21T21:36:55.586Z,23.00
2017-10-21T21:39:23.136Z,24.37
2017-10-21T21:41:50.706Z,24.70
2017-10-21T21:44:18.270Z,24.00
2017-10-21T21:46:45.850Z,24.60
2017-10-21T21:49:13.426Z,27.37
2017-10-21T21:51:41.057Z,32.87
2017-10-21T21:54:08.711Z,28.83
2017-10-21T21:56:36.389Z,30.50
2017-10-21T21:59:04.030Z,31.30
2017-10-21T22:01:31.622Z,31.03
2017-10-21T22:03:59.159Z,31.00
2017-10-21T22:06:26.772Z,32.27
2017-10-21T22:08:54.323Z,31.57
2017-10-21T22:11:21.841Z,36.00
2017-10-21T22:13:49.390Z,33.70
2017-10-21T22:16:17.007Z,38.60
2017-10-21T22:18:45.298Z,34.57
2017-10-21T22:21:13.177Z,37.10
2017-10-21T22:23:40.839Z,35.17
2017-10-21T22:26:08.376Z,35.90
2017-10-21T22:28:35.925Z,33.17
2017-10-21T22:31:03.472Z,35.27
2017-10-21T22:33:31.899Z,35.30
2017-10-21T22:35:59.400Z,33.80
2017-10-21T22:38:27.074Z,33.30
2017-10-21T22:40:54.661Z,32.17
2017-10-21T22:43:22.288Z,32.60
2017-10-21T22:45:49.833Z,31.37
2017-10-21T22:48:17.391Z,34.90
2017-10-21T22:50:44.967Z,30.30
2017-10-21T22:53:12.525Z,31.07
2017-10-21T22:55:40.065Z,31.00
2017-10-21T22:58:07.653Z,30.00
2017-10-21T23:00:35.201Z,27.70
2017-10-21T23:03:02.796Z,30.07
2017-10-21T23:05:30.460Z,28.90
2017-10-21T23:08:00.592Z,29.23
2017-10-21T23:10:28.239Z,29.90
2017-10-21T23:12:56.550Z,31.13
2017-10-21T23:15:24.075Z,31.17
2017-10-21T23:17:51.599Z,32.60
2017-10-21T23:20:19.250Z,30.80
2017-10-21T23:22:47.754Z,32.83
2017-10-21T23:25:15.270Z,34.20
2017-10-21T23:27:42.911Z,33.73
2017-10-21T23:30:10.447Z,34.83
2017-10-21T23:32:39.269Z,32.97
2017-10-21T23:35:06.866Z,33.73
2017-10-21T23:37:34.414Z,34.90
2017-10-21T23:40:02.803Z,33.47
2017-10-21T23:42:30.503Z,33.60
2017-10-21T23:44:58.060Z,36.03
2017-10-21T23:47:26.391Z,32.23
2017-10-21T23:49:53.913Z,35.37
2017-10-21T23:52:21.492Z,32.30
2017-10-21T23:54:49.082Z,33.33
2017-10-21T23:57:16.796Z,35.93
2017-10-21T23:59:45.119Z,31.77
